createdAt,value
2019-03-31T00:01:26.043Z,29.23
2019-03-31T00:03:56.118Z,29.03
2019-03-31T00:06:26.174Z,29.72
2019-03-31T00:08:57.517Z,34.50
2019-03-31T00:11:28.687Z,43.77
2019-03-31T00:13:58.778Z,44.50
2019-03-31T00:16:28.894Z,43.73
2019-03-31T00:18:58.982Z,42.80
2019-03-31T00:21:29.068Z,42.17
2019-03-31T00:23:59.157Z,39.90
2019-03-31T00:26:29.216Z,31.68
2019-03-31T00:28:59.325Z,27.30
2019-03-31T00:31:29.409Z,27.73
2019-03-31T00:33:59.575Z,30.80
2019-03-31T00:36:29.712Z,39.43
2019-03-31T00:38:59.818Z,41.70
2019-03-31T00:41:29.908Z,37.20
2019-03-31T00:44:01.010Z,40.60
2019-03-31T00:46:31.069Z,36.63
2019-03-31T00:49:01.230Z,34.58
2019-03-31T00:51:31.384Z,33.65
2019-03-31T00:54:01.506Z,35.05
2019-03-31T00:56:31.579Z,34.98
2019-03-31T00:59:01.730Z,33.18
2019-03-31T01:01:44.065Z,33.67
2019-03-31T01:04:18.557Z,32.60
2019-03-31T01:06:51.521Z,29.70
2019-03-31T01:09:25.332Z,30.50
2019-03-31T01:11:55.753Z,31.17
2019-03-31T01:14:26.467Z,31.62
2019-03-31T01:16:57.209Z,31.52
2019-03-31T01:19:27.678Z,32.42
2019-03-31T01:21:57.836Z,34.60
2019-03-31T01:24:27.939Z,34.65
2019-03-31T01:26:58.041Z,36.67
2019-03-31T01:29:28.291Z,39.10
2019-03-31T01:31:58.561Z,41.50
2019-03-31T01:34:28.644Z,41.18
2019-03-31T01:36:58.837Z,53.30
2019-03-31T01:39:31.360Z,59.93
2019-03-31T01:42:01.572Z,63.25
2019-03-31T01:44:31.682Z,64.00
2019-03-31T01:47:01.839Z,61.85
2019-03-31T01:49:31.932Z,49.38
2019-03-31T01:52:02.812Z,39.90
2019-03-31T01:54:32.913Z,38.50
2019-03-31T01:57:02.974Z,38.88
2019-03-31T01:59:33.048Z,39.73
2019-03-31T02:02:04.578Z,41.92
2019-03-31T02:04:34.832Z,49.67
2019-03-31T02:07:05.094Z,62.75
2019-03-31T02:09:35.164Z,63.90
2019-03-31T02:12:05.323Z,62.33
2019-03-31T02:14:35.396Z,62.95
2019-03-31T02:17:05.484Z,65.05
2019-03-31T02:19:35.561Z,66.62
2019-03-31T02:22:05.739Z,68.35
2019-03-31T02:24:35.809Z,69.25
2019-03-31T02:27:05.911Z,66.95
2019-03-31T02:29:35.991Z,67.32
2019-03-31T02:32:22.556Z,67.85
2019-03-31T02:34:37.933Z,69.92
2019-03-31T02:37:08.037Z,72.03
2019-03-31T02:39:38.104Z,69.17
2019-03-31T02:42:08.278Z,67.80
2019-03-31T02:44:38.431Z,68.70
2019-03-31T02:47:08.547Z,69.35
2019-03-31T02:49:38.618Z,70.03
2019-03-31T02:52:08.921Z,67.37
2019-03-31T02:54:39.091Z,67.92
2019-03-31T02:57:09.366Z,70.05
2019-03-31T02:59:39.940Z,66.85
2019-03-31T03:02:10.129Z,67.50
2019-03-31T03:04:42.158Z,64.77
2019-03-31T03:07:13.828Z,66.87
2019-03-31T03:09:45.713Z,65.42
2019-03-31T03:12:18.035Z,64.07
2019-03-31T03:14:50.192Z,63.07
2019-03-31T03:17:20.268Z,62.83
2019-03-31T03:19:50.340Z,62.43
2019-03-31T03:22:20.491Z,63.02
2019-03-31T03:24:50.589Z,63.10
2019-03-31T03:27:20.696Z,63.60
2019-03-31T03:29:50.732Z,62.90
2019-03-31T03:32:20.877Z,65.60
2019-03-31T03:34:50.946Z,67.12
2019-03-31T03:37:21.171Z,68.62
2019-03-31T03:39:51.192Z,69.27
2019-03-31T03:42:22.244Z,71.20
2019-03-31T03:44:52.309Z,75.57
2019-03-31T03:47:23.440Z,86.17
2019-03-31T03:49:53.532Z,90.62
2019-03-31T03:52:23.594Z,96.60
2019-03-31T03:54:53.734Z,103.15
2019-03-31T03:57:23.811Z,99.20
2019-03-31T03:59:53.921Z,97.72
2019-03-31T04:02:24.011Z,100.55
2019-03-31T04:04:54.096Z,100.70
2019-03-31T04:07:24.177Z,91.10
2019-03-31T04:09:54.260Z,87.15
2019-03-31T04:12:24.348Z,91.22
2019-03-31T04:14:54.412Z,90.60
2019-03-31T04:17:24.532Z,90.65
2019-03-31T04:19:54.596Z,90.20
2019-03-31T04:22:24.680Z,93.27
2019-03-31T04:24:54.735Z,88.23
2019-03-31T04:27:24.837Z,88.67
2019-03-31T04:29:54.895Z,89.55
2019-03-31T04:32:25.013Z,84.77
2019-03-31T04:34:55.067Z,80.42
2019-03-31T04:37:25.184Z,81.55
2019-03-31T04:39:55.256Z,75.92
2019-03-31T04:42:25.374Z,71.57
2019-03-31T04:44:55.442Z,76.75
2019-03-31T04:47:25.570Z,69.40
2019-03-31T04:49:55.645Z,70.03
2019-03-31T04:52:25.747Z,64.75
2019-03-31T04:54:55.839Z,65.87
2019-03-31T04:57:25.929Z,65.32
2019-03-31T04:59:56.005Z,64.27
2019-03-31T05:02:27.318Z,64.87
2019-03-31T05:04:57.568Z,61.40
2019-03-31T05:07:27.649Z,59.75
2019-03-31T05:09:57.757Z,60.48
2019-03-31T05:12:27.834Z,58.10
2019-03-31T05:14:57.904Z,59.20
2019-03-31T05:17:27.994Z,59.15
2019-03-31T05:19:58.060Z,57.80
2019-03-31T05:22:28.149Z,55.65
2019-03-31T05:24:58.244Z,55.38
2019-03-31T05:27:28.323Z,53.90
2019-03-31T05:29:58.398Z,54.88
2019-03-31T05:32:28.482Z,54.15
2019-03-31T05:34:58.545Z,53.10
2019-03-31T05:37:28.622Z,48.23
2019-03-31T05:39:58.700Z,51.60
2019-03-31T05:42:28.789Z,51.50
2019-03-31T05:44:58.847Z,49.90
2019-03-31T05:47:28.930Z,49.75
2019-03-31T05:49:58.990Z,53.77
2019-03-31T05:52:29.073Z,52.50
2019-03-31T05:54:59.145Z,53.38
2019-03-31T05:57:29.223Z,53.95
2019-03-31T05:59:59.303Z,54.33
2019-03-31T06:02:29.376Z,53.38
2019-03-31T06:04:59.468Z,55.08
2019-03-31T06:07:29.568Z,52.93
2019-03-31T06:09:59.658Z,54.53
2019-03-31T06:12:29.744Z,56.45
2019-03-31T06:14:59.827Z,54.80
2019-03-31T06:17:29.901Z,57.27
2019-03-31T06:20:00.019Z,54.73
2019-03-31T06:22:30.093Z,55.80
2019-03-31T06:25:00.353Z,57.78
2019-03-31T06:27:30.484Z,55.03
2019-03-31T06:30:00.523Z,54.23
2019-03-31T06:32:30.616Z,53.50
2019-03-31T06:35:00.717Z,54.20
2019-03-31T06:37:30.811Z,53.20
2019-03-31T06:40:00.977Z,51.68
2019-03-31T06:42:31.062Z,52.80
2019-03-31T06:45:01.139Z,49.67
2019-03-31T06:47:31.250Z,48.20
2019-03-31T06:50:01.315Z,44.80
2019-03-31T06:52:31.406Z,42.15
2019-03-31T06:55:02.555Z,42.95
2019-03-31T06:57:32.697Z,45.45
2019-03-31T07:00:02.768Z,44.33
2019-03-31T07:02:32.878Z,39.75
2019-03-31T07:05:02.953Z,41.10
2019-03-31T07:07:33.071Z,39.10
2019-03-31T07:10:03.181Z,40.60
2019-03-31T07:12:33.302Z,39.03
2019-03-31T07:15:03.551Z,40.43
2019-03-31T07:17:33.669Z,38.03
2019-03-31T07:20:04.142Z,38.00
2019-03-31T07:22:34.239Z,35.45
2019-03-31T07:25:04.774Z,33.95
2019-03-31T07:27:34.864Z,32.30
2019-03-31T07:30:07.286Z,32.83
2019-03-31T07:32:37.702Z,34.75
2019-03-31T07:35:18.188Z,37.50
2019-03-31T07:37:47.030Z,29.85
2019-03-31T07:40:13.266Z,31.68
2019-03-31T07:42:43.413Z,28.90
2019-03-31T07:45:15.393Z,32.80
2019-03-31T07:47:45.652Z,31.75
2019-03-31T07:50:18.112Z,30.23
2019-03-31T07:52:48.181Z,23.83
2019-03-31T07:55:18.396Z,24.30
2019-03-31T07:57:48.574Z,25.90
2019-03-31T08:00:20.517Z,20.12
2019-03-31T08:02:50.678Z,22.95
2019-03-31T08:05:32.391Z,21.77
2019-03-31T08:07:52.590Z,21.77
2019-03-31T08:10:23.905Z,21.25
2019-03-31T08:12:54.027Z,21.40
2019-03-31T08:15:25.054Z,19.90
2019-03-31T08:17:55.154Z,18.62
2019-03-31T08:20:25.337Z,20.30
2019-03-31T08:22:57.068Z,15.77
2019-03-31T08:25:27.285Z,16.37
2019-03-31T08:27:57.571Z,15.23
2019-03-31T08:30:27.953Z,14.55
2019-03-31T08:32:58.050Z,16.00
2019-03-31T08:35:28.135Z,15.32
2019-03-31T08:37:58.262Z,14.38
2019-03-31T08:40:28.420Z,14.47
2019-03-31T08:42:58.622Z,13.70
2019-03-31T08:45:30.447Z,10.28
2019-03-31T08:48:00.541Z,11.17
2019-03-31T08:50:30.651Z,11.20
2019-03-31T08:53:00.744Z,9.90
2019-03-31T08:55:30.833Z,11.53
2019-03-31T08:58:00.951Z,7.60
2019-03-31T09:00:50.076Z,5.97
2019-03-31T09:03:20.160Z,5.95
2019-03-31T09:06:01.115Z,5.65
2019-03-31T09:08:22.013Z,5.90
2019-03-31T09:10:52.129Z,5.33
2019-03-31T09:13:22.318Z,5.83
2019-03-31T09:15:52.399Z,5.77
2019-03-31T09:18:22.494Z,5.35
2019-03-31T09:20:52.691Z,5.30
2019-03-31T09:23:22.980Z,5.45
2019-03-31T09:25:53.039Z,4.53
2019-03-31T09:28:23.182Z,5.23
2019-03-31T09:30:55.922Z,4.85
2019-03-31T09:33:26.082Z,5.40
2019-03-31T09:35:56.183Z,4.95
2019-03-31T09:38:26.542Z,4.20
2019-03-31T09:40:56.800Z,3.90
2019-03-31T09:43:27.798Z,4.05
2019-03-31T09:45:57.882Z,4.37
2019-03-31T09:48:31.056Z,3.97
2019-03-31T09:51:01.157Z,3.85
2019-03-31T09:53:31.247Z,3.85
2019-03-31T09:56:01.337Z,3.30
2019-03-31T09:58:31.467Z,3.65
2019-03-31T10:01:01.541Z,2.92
2019-03-31T10:03:31.633Z,3.60
2019-03-31T10:06:10.774Z,3.72
2019-03-31T10:08:33.697Z,3.10
2019-03-31T10:11:03.865Z,3.17
2019-03-31T10:14:12.644Z,3.90
2019-03-31T10:16:42.725Z,3.60
2019-03-31T10:19:13.183Z,4.00
2019-03-31T10:21:43.335Z,3.15
2019-03-31T10:24:13.789Z,3.02
2019-03-31T10:26:44.034Z,2.07
2019-03-31T10:29:14.157Z,3.30
2019-03-31T10:31:44.229Z,2.83
2019-03-31T10:34:14.332Z,2.30
2019-03-31T10:36:45.096Z,2.80
2019-03-31T10:39:15.601Z,2.87
2019-03-31T10:41:45.684Z,2.83
2019-03-31T10:44:15.758Z,2.10
2019-03-31T10:46:45.859Z,2.87
2019-03-31T10:49:15.937Z,2.55
2019-03-31T10:51:46.035Z,2.90
2019-03-31T10:54:16.989Z,2.13
2019-03-31T10:56:47.267Z,1.60
2019-03-31T10:59:17.436Z,2.60
2019-03-31T11:01:47.533Z,2.30
2019-03-31T11:04:17.631Z,3.65
2019-03-31T11:06:58.459Z,2.73
2019-03-31T11:09:19.511Z,2.60
2019-03-31T11:11:49.595Z,2.87
2019-03-31T11:14:19.949Z,2.80
2019-03-31T11:16:50.123Z,3.08
2019-03-31T11:19:21.860Z,2.60
2019-03-31T11:22:05.357Z,2.17
2019-03-31T11:24:35.622Z,2.85
2019-03-31T11:27:05.829Z,2.93
2019-03-31T11:29:35.925Z,2.90
2019-03-31T11:32:06.049Z,2.95
2019-03-31T11:34:36.134Z,2.37
2019-03-31T11:37:13.274Z,2.50
2019-03-31T11:39:38.188Z,2.80
2019-03-31T11:42:08.356Z,2.20
2019-03-31T11:44:38.441Z,2.50
2019-03-31T11:47:08.579Z,2.45
2019-03-31T11:49:38.831Z,3.40
2019-03-31T11:52:09.001Z,2.83
2019-03-31T11:54:39.065Z,3.03
2019-03-31T11:57:09.194Z,2.72
2019-03-31T11:59:39.286Z,2.55
2019-03-31T12:02:09.451Z,2.55
2019-03-31T12:04:39.531Z,3.20
2019-03-31T12:07:09.601Z,2.62
2019-03-31T12:09:39.671Z,2.30
2019-03-31T12:12:09.756Z,3.30
2019-03-31T12:14:39.860Z,2.90
2019-03-31T12:17:10.040Z,3.00
2019-03-31T12:19:40.160Z,3.30
2019-03-31T12:22:10.327Z,2.90
2019-03-31T12:24:40.548Z,2.77
2019-03-31T12:27:10.762Z,2.20
2019-03-31T12:29:40.841Z,3.30
2019-03-31T12:32:11.102Z,2.80
2019-03-31T12:34:41.168Z,2.65
2019-03-31T12:37:11.300Z,3.07
2019-03-31T12:39:41.372Z,2.70
2019-03-31T12:42:11.502Z,3.00
2019-03-31T12:44:41.567Z,2.80
2019-03-31T12:47:11.686Z,2.87
2019-03-31T12:49:41.760Z,3.30
2019-03-31T12:52:12.875Z,2.80
2019-03-31T12:54:43.202Z,3.13
2019-03-31T12:57:13.364Z,2.90
2019-03-31T12:59:43.500Z,2.60
2019-03-31T13:02:13.709Z,2.70
2019-03-31T13:04:43.912Z,2.90
2019-03-31T13:07:15.017Z,2.52
2019-03-31T13:09:45.170Z,2.50
2019-03-31T13:12:15.243Z,2.60
2019-03-31T13:14:46.291Z,2.52
2019-03-31T13:17:17.324Z,2.42
2019-03-31T13:19:48.433Z,2.87
2019-03-31T13:22:19.482Z,3.20
2019-03-31T13:24:49.655Z,2.60
2019-03-31T13:27:19.712Z,2.40
2019-03-31T13:29:49.818Z,3.00
2019-03-31T13:32:20.527Z,3.10
2019-03-31T13:34:50.613Z,2.80
2019-03-31T13:37:20.749Z,3.07
2019-03-31T13:39:50.837Z,2.70
2019-03-31T13:42:20.984Z,2.90
2019-03-31T13:44:51.051Z,2.37
2019-03-31T13:47:21.128Z,2.93
2019-03-31T13:49:51.202Z,2.67
2019-03-31T13:52:21.323Z,2.50
2019-03-31T13:54:51.381Z,2.50
2019-03-31T13:57:22.614Z,2.40
2019-03-31T13:59:52.834Z,2.70
2019-03-31T14:02:23.044Z,2.50
2019-03-31T14:04:53.103Z,2.47
2019-03-31T14:07:23.196Z,3.47
2019-03-31T14:09:53.309Z,3.07
2019-03-31T14:12:23.388Z,2.80
2019-03-31T14:14:53.471Z,2.80
2019-03-31T14:17:24.573Z,2.50
2019-03-31T14:19:54.906Z,3.03
2019-03-31T14:22:25.136Z,2.58
2019-03-31T14:24:55.251Z,2.40
2019-03-31T14:27:25.359Z,2.40
2019-03-31T14:29:55.436Z,2.35
2019-03-31T14:32:25.534Z,2.20
2019-03-31T14:34:55.709Z,2.10
2019-03-31T14:37:25.823Z,1.90
2019-03-31T14:39:55.899Z,2.08
2019-03-31T14:42:26.089Z,1.80
2019-03-31T14:44:56.223Z,2.45
2019-03-31T14:47:26.366Z,1.70
2019-03-31T14:49:57.488Z,2.10
2019-03-31T14:52:28.065Z,1.67
2019-03-31T14:54:58.160Z,2.00
2019-03-31T14:57:28.220Z,2.00
2019-03-31T14:59:58.297Z,2.00
2019-03-31T15:02:29.457Z,2.45
2019-03-31T15:04:59.594Z,2.40
2019-03-31T15:07:29.671Z,2.75
2019-03-31T15:09:59.771Z,1.80
2019-03-31T15:12:29.829Z,2.40
2019-03-31T15:15:00.033Z,2.15
2019-03-31T15:17:30.127Z,2.40
2019-03-31T15:20:00.368Z,1.97
2019-03-31T15:22:30.445Z,2.17
2019-03-31T15:25:01.185Z,2.20
2019-03-31T15:27:31.286Z,2.30
2019-03-31T15:30:01.381Z,1.80
2019-03-31T15:32:32.681Z,2.27
2019-03-31T15:35:02.790Z,1.93
2019-03-31T15:37:32.883Z,2.17
2019-03-31T15:40:03.014Z,2.00
2019-03-31T15:42:33.121Z,2.10
2019-03-31T15:45:03.276Z,2.60
2019-03-31T15:47:33.365Z,2.10
2019-03-31T15:50:03.488Z,2.22
2019-03-31T15:52:33.664Z,1.98
2019-03-31T15:55:03.758Z,2.10
2019-03-31T15:57:33.839Z,1.80
2019-03-31T16:00:04.932Z,1.90
2019-03-31T16:02:35.003Z,1.70
2019-03-31T16:05:06.174Z,1.90
2019-03-31T16:07:36.385Z,1.90
2019-03-31T16:10:07.023Z,1.70
2019-03-31T16:12:36.572Z,1.70
2019-03-31T16:15:06.442Z,2.00
2019-03-31T16:17:36.108Z,1.90
2019-03-31T16:20:06.045Z,1.80
2019-03-31T16:22:35.547Z,1.90
2019-03-31T16:25:09.828Z,1.65
2019-03-31T16:27:39.517Z,2.00
2019-03-31T16:30:09.138Z,2.00
2019-03-31T16:32:38.656Z,1.70
2019-03-31T16:35:09.330Z,2.20
2019-03-31T16:37:38.879Z,1.87
2019-03-31T16:40:08.495Z,1.90
2019-03-31T16:42:38.121Z,2.00
2019-03-31T16:45:07.917Z,1.90
2019-03-31T16:47:37.434Z,1.70
2019-03-31T16:50:07.127Z,1.72
2019-03-31T16:52:36.666Z,2.12
2019-03-31T16:55:06.381Z,2.07
2019-03-31T16:57:37.003Z,2.30
2019-03-31T17:00:07.602Z,2.67
2019-03-31T17:02:37.174Z,2.30
2019-03-31T17:05:20.767Z,2.27
2019-03-31T17:07:38.552Z,2.53
2019-03-31T17:10:08.215Z,2.70
2019-03-31T17:12:37.734Z,2.63
2019-03-31T17:15:07.467Z,2.30
2019-03-31T17:17:36.985Z,2.00
2019-03-31T17:20:07.802Z,2.02
2019-03-31T17:22:37.488Z,2.50
2019-03-31T17:25:08.218Z,2.57
2019-03-31T17:27:38.101Z,2.10
2019-03-31T17:30:09.562Z,2.17
2019-03-31T17:32:39.099Z,2.45
2019-03-31T17:35:08.707Z,2.52
2019-03-31T17:37:38.258Z,1.87
2019-03-31T17:40:07.865Z,2.30
2019-03-31T17:42:37.452Z,2.70
2019-03-31T17:45:07.469Z,3.00
2019-03-31T17:47:37.495Z,2.40
2019-03-31T17:50:07.217Z,2.40
2019-03-31T17:52:36.700Z,2.83
2019-03-31T17:55:06.789Z,2.95
2019-03-31T17:57:37.408Z,2.50
2019-03-31T18:00:09.264Z,2.60
2019-03-31T18:02:38.814Z,2.90
2019-03-31T18:05:08.632Z,2.83
2019-03-31T18:07:38.149Z,2.65
2019-03-31T18:10:20.157Z,2.27
2019-03-31T18:12:38.966Z,2.20
2019-03-31T18:15:08.952Z,2.50
2019-03-31T18:17:38.493Z,2.33
2019-03-31T18:20:08.555Z,2.20
2019-03-31T18:22:38.510Z,2.55
2019-03-31T18:25:08.336Z,2.10
2019-03-31T18:27:38.226Z,2.90
2019-03-31T18:30:08.096Z,2.00
2019-03-31T18:32:37.606Z,2.17
2019-03-31T18:35:07.334Z,2.00
2019-03-31T18:37:36.875Z,2.00
2019-03-31T18:40:07.205Z,2.13
2019-03-31T18:42:36.895Z,2.10
2019-03-31T18:45:06.945Z,1.90
2019-03-31T18:47:36.935Z,2.85
2019-03-31T18:50:06.801Z,2.40
2019-03-31T18:52:37.491Z,2.45
2019-03-31T18:55:27.038Z,2.25
2019-03-31T18:58:02.354Z,2.20
2019-03-31T19:01:03.410Z,2.60
2019-03-31T19:03:50.617Z,2.70
2019-03-31T19:06:32.783Z,2.20
2019-03-31T19:09:21.410Z,2.40
2019-03-31T19:12:09.962Z,3.08
2019-03-31T19:14:51.784Z,2.63
2019-03-31T19:17:31.310Z,2.50
2019-03-31T19:20:29.140Z,2.60
2019-03-31T19:23:08.566Z,2.75
2019-03-31T19:25:56.586Z,2.60
2019-03-31T19:28:41.850Z,2.47
2019-03-31T19:31:36.612Z,3.00
2019-03-31T19:34:25.817Z,2.60
2019-03-31T19:37:14.404Z,2.70
2019-03-31T19:39:53.186Z,2.40
2019-03-31T19:42:41.862Z,2.33
2019-03-31T19:45:29.509Z,2.30
2019-03-31T19:48:07.574Z,3.18
2019-03-31T19:51:11.589Z,2.83
2019-03-31T19:54:06.123Z,2.65
2019-03-31T19:56:46.017Z,2.73
2019-03-31T19:59:37.725Z,2.20
2019-03-31T20:02:32.422Z,2.43
2019-03-31T20:05:19.846Z,2.72
2019-03-31T20:08:00.739Z,2.30
2019-03-31T20:10:45.962Z,2.30
2019-03-31T20:13:52.948Z,3.00
2019-03-31T20:16:45.136Z,3.07
2019-03-31T20:19:46.013Z,2.72
2019-03-31T20:22:34.595Z,2.50
2019-03-31T20:25:35.548Z,2.85
2019-03-31T20:28:11.443Z,2.50
2019-03-31T20:30:52.717Z,1.95
2019-03-31T20:33:40.276Z,2.30
2019-03-31T20:36:36.074Z,2.10
2019-03-31T20:39:23.471Z,2.60
2019-03-31T20:42:09.383Z,2.98
2019-03-31T20:44:38.998Z,2.40
2019-03-31T20:47:08.550Z,1.70
2019-03-31T20:49:38.100Z,2.83
2019-03-31T20:52:07.671Z,2.33
2019-03-31T20:54:37.214Z,2.20
2019-03-31T20:57:07.885Z,2.85
2019-03-31T20:59:39.962Z,1.90
2019-03-31T21:02:09.556Z,2.17
2019-03-31T21:04:40.177Z,2.60
2019-03-31T21:07:10.114Z,2.70
2019-03-31T21:09:45.227Z,2.67
2019-03-31T21:12:11.222Z,2.00
2019-03-31T21:14:40.861Z,2.70
2019-03-31T21:17:11.253Z,2.63
2019-03-31T21:19:40.815Z,2.58
2019-03-31T21:22:10.374Z,2.60
2019-03-31T21:24:40.115Z,2.52
2019-03-31T21:27:12.632Z,2.05
2019-03-31T21:29:42.173Z,2.20
2019-03-31T21:32:11.700Z,2.37
2019-03-31T21:34:41.248Z,2.10
2019-03-31T21:37:10.792Z,2.30
2019-03-31T21:39:40.304Z,2.22
2019-03-31T21:42:09.829Z,2.47
2019-03-31T21:44:39.349Z,2.50
2019-03-31T21:47:08.879Z,2.60
2019-03-31T21:49:38.387Z,1.72
2019-03-31T21:52:07.908Z,2.45
2019-03-31T21:54:37.437Z,2.30
2019-03-31T21:57:06.964Z,1.80
2019-03-31T21:59:36.503Z,1.95
2019-03-31T22:02:06.004Z,2.37
2019-03-31T22:04:35.543Z,2.15
2019-03-31T22:07:05.140Z,2.00
2019-03-31T22:09:34.652Z,1.90
2019-03-31T22:12:04.324Z,2.15
2019-03-31T22:14:33.835Z,2.27
2019-03-31T22:17:03.360Z,1.90
2019-03-31T22:19:32.882Z,2.42
2019-03-31T22:22:02.484Z,2.00
2019-03-31T22:24:31.998Z,2.02
2019-03-31T22:27:01.636Z,2.20
2019-03-31T22:29:31.175Z,1.80
2019-03-31T22:32:00.701Z,1.80
2019-03-31T22:34:30.230Z,2.45
2019-03-31T22:36:59.807Z,1.95
2019-03-31T22:39:29.339Z,1.92
2019-03-31T22:41:58.858Z,2.30
2019-03-31T22:44:28.396Z,2.17
2019-03-31T22:46:57.960Z,2.45
2019-03-31T22:49:27.497Z,2.45
2019-03-31T22:51:57.032Z,2.10
2019-03-31T22:54:29.183Z,1.92
2019-03-31T22:56:58.762Z,2.10
2019-03-31T22:59:28.362Z,2.25
2019-03-31T23:01:58.105Z,1.80
2019-03-31T23:04:27.830Z,2.22
2019-03-31T23:06:57.340Z,1.70
2019-03-31T23:09:26.933Z,2.15
2019-03-31T23:11:56.444Z,2.50
2019-03-31T23:14:25.963Z,2.42
2019-03-31T23:16:55.475Z,2.58
2019-03-31T23:19:25.010Z,2.10
2019-03-31T23:21:54.557Z,2.37
2019-03-31T23:24:24.095Z,1.90
2019-03-31T23:26:53.615Z,2.55
2019-03-31T23:29:23.131Z,1.65
2019-03-31T23:31:52.639Z,2.20
2019-03-31T23:34:22.154Z,2.10
2019-03-31T23:36:51.676Z,2.10
2019-03-31T23:39:21.246Z,2.02
2019-03-31T23:41:50.723Z,2.37
2019-03-31T23:44:20.256Z,1.80
2019-03-31T23:46:49.755Z,1.50
2019-03-31T23:49:19.297Z,1.90
2019-03-31T23:51:48.809Z,1.60
2019-03-31T23:54:18.335Z,1.95
2019-03-31T23:56:47.861Z,1.65
2019-03-31T23:59:17.394Z,1.70
